createdAt,value
2023-05-18T00:00:35.944Z,23.60
2023-05-18T00:03:17.030Z,23.50
2023-05-18T00:05:52.527Z,23.40
2023-05-18T00:08:27.469Z,23.40
2023-05-18T00:11:11.286Z,23.30
2023-05-18T00:13:48.721Z,23.40
2023-05-18T00:16:24.212Z,23.40
2023-05-18T00:19:06.386Z,23.40
2023-05-18T00:21:47.905Z,23.50
2023-05-18T00:24:23.986Z,23.50
2023-05-18T00:27:02.803Z,23.50
2023-05-18T00:29:43.886Z,23.40
2023-05-18T00:32:19.513Z,23.50
2023-05-18T00:35:21.312Z,23.10
2023-05-18T00:37:54.997Z,23.20
2023-05-18T00:40:31.943Z,23.30
2023-05-18T00:43:11.665Z,23.50
2023-05-18T00:49:37.094Z,23.20
2023-05-18T00:52:14.507Z,23.00
2023-05-18T00:54:49.325Z,23.00
2023-05-18T00:57:22.411Z,23.00
2023-05-18T00:59:58.938Z,23.00
2023-05-18T01:02:33.316Z,23.00
2023-05-18T01:05:07.520Z,23.20
2023-05-18T01:07:41.717Z,23.30
2023-05-18T01:10:18.189Z,23.20
2023-05-18T01:13:02.566Z,23.20
2023-05-18T01:15:45.466Z,23.20
2023-05-18T01:18:27.211Z,23.30
2023-05-18T01:21:12.830Z,23.60
2023-05-18T01:24:07.656Z,23.70
2023-05-18T01:26:51.858Z,23.90
2023-05-18T01:29:29.889Z,24.10
2023-05-18T01:32:05.334Z,24.10
2023-05-18T01:34:43.254Z,24.00
2023-05-18T01:37:20.226Z,24.20
2023-05-18T01:39:59.799Z,23.80
2023-05-18T01:42:42.435Z,23.90
2023-05-18T01:45:26.176Z,23.80
2023-05-18T01:48:07.158Z,24.10
2023-05-18T01:50:49.645Z,24.10
2023-05-18T01:53:31.944Z,24.10
2023-05-18T01:56:10.936Z,24.20
2023-05-18T01:58:51.407Z,24.40
2023-05-18T02:01:31.868Z,24.20
2023-05-18T02:04:12.097Z,24.10
2023-05-18T02:06:45.263Z,24.40
2023-05-18T02:09:22.327Z,24.40
2023-05-18T02:12:00.034Z,24.50
2023-05-18T02:14:40.521Z,24.70
2023-05-18T02:17:17.001Z,24.80
2023-05-18T02:19:51.145Z,24.80
2023-05-18T02:22:28.948Z,24.80
2023-05-18T02:25:07.593Z,25.30
2023-05-18T02:27:40.779Z,25.50
2023-05-18T02:30:23.125Z,25.60
2023-05-18T02:32:59.993Z,25.50
2023-05-18T02:35:35.719Z,25.50
2023-05-18T02:38:20.454Z,25.30
2023-05-18T02:40:58.884Z,25.30
2023-05-18T02:43:35.901Z,25.40
2023-05-18T02:46:11.744Z,25.70
2023-05-18T02:48:48.152Z,26.10
2023-05-18T02:51:25.491Z,26.40
2023-05-18T02:54:01.801Z,27.10
2023-05-18T02:56:39.964Z,27.60
2023-05-18T02:59:24.640Z,27.70
2023-05-18T03:02:03.286Z,27.90
2023-05-18T03:04:39.759Z,28.10
2023-05-18T03:07:16.948Z,27.50
2023-05-18T03:09:54.799Z,27.70
2023-05-18T03:12:30.583Z,28.10
2023-05-18T03:15:10.254Z,28.50
2023-05-18T03:17:53.751Z,28.70
2023-05-18T03:20:27.794Z,28.70
2023-05-18T03:23:07.480Z,28.90
2023-05-18T03:25:47.819Z,29.00
2023-05-18T03:28:28.615Z,28.40
2023-05-18T03:31:03.782Z,28.10
2023-05-18T03:33:59.666Z,28.00
2023-05-18T03:36:35.467Z,27.50
2023-05-18T03:39:17.955Z,27.50
2023-05-18T03:41:54.683Z,27.60
2023-05-18T03:44:41.437Z,27.70
2023-05-18T03:47:17.106Z,27.50
2023-05-18T03:50:27.153Z,27.30
2023-05-18T03:53:23.370Z,27.00
2023-05-18T03:55:58.388Z,26.90
2023-05-18T03:58:36.419Z,27.00
2023-05-18T04:01:12.248Z,27.30
2023-05-18T04:03:53.381Z,27.70
2023-05-18T04:06:41.754Z,27.80
2023-05-18T04:09:18.873Z,27.70
2023-05-18T04:11:55.014Z,27.20
2023-05-18T04:14:34.620Z,27.20
2023-05-18T04:17:11.709Z,27.10
2023-05-18T04:19:50.467Z,26.90
2023-05-18T04:22:50.060Z,27.40
2023-05-18T04:25:29.752Z,27.60
2023-05-18T04:28:05.786Z,27.80
2023-05-18T04:30:47.915Z,27.70
2023-05-18T04:33:29.682Z,27.80
2023-05-18T04:36:07.022Z,27.80
2023-05-18T04:38:50.117Z,27.90
2023-05-18T04:41:27.923Z,27.80
2023-05-18T04:44:07.489Z,28.20
2023-05-18T04:46:49.788Z,28.70
2023-05-18T04:49:28.530Z,28.90
2023-05-18T04:52:12.342Z,28.80
2023-05-18T04:54:50.962Z,29.20
2023-05-18T04:57:29.579Z,29.20
2023-05-18T05:00:09.986Z,29.00
2023-05-18T05:02:51.251Z,28.80
2023-05-18T05:05:33.808Z,28.80
2023-05-18T05:08:08.351Z,28.80
2023-05-18T05:10:48.668Z,28.70
2023-05-18T05:13:44.560Z,28.60
2023-05-18T05:16:22.039Z,28.30
2023-05-18T05:19:04.056Z,28.50
2023-05-18T05:21:39.664Z,29.00
2023-05-18T05:24:21.640Z,29.20
2023-05-18T05:27:02.709Z,29.10
2023-05-18T05:29:45.256Z,28.80
2023-05-18T05:32:27.932Z,29.10
2023-05-18T05:35:03.319Z,29.20
2023-05-18T05:37:40.080Z,29.20
2023-05-18T05:40:16.573Z,29.10
2023-05-18T05:43:01.695Z,29.60
2023-05-18T05:45:44.636Z,29.40
2023-05-18T05:48:29.859Z,29.60
2023-05-18T05:51:09.657Z,30.00
2023-05-18T05:53:49.103Z,30.10
2023-05-18T05:56:26.519Z,29.80
2023-05-18T05:59:09.597Z,29.50
2023-05-18T06:01:53.574Z,29.30
2023-05-18T06:04:39.696Z,29.20
2023-05-18T06:07:23.884Z,29.40
2023-05-18T06:10:03.557Z,29.80
2023-05-18T06:12:42.742Z,29.80
2023-05-18T06:15:25.431Z,29.70
2023-05-18T06:17:58.944Z,29.80
2023-05-18T06:20:36.720Z,30.10
2023-05-18T06:23:12.202Z,30.10
2023-05-18T06:26:06.568Z,30.30
2023-05-18T06:29:08.164Z,30.00
2023-05-18T06:32:23.827Z,29.50
2023-05-18T06:35:19.969Z,29.70
2023-05-18T06:38:03.528Z,29.90
2023-05-18T06:40:42.869Z,29.50
2023-05-18T06:43:30.646Z,29.60
2023-05-18T06:46:30.676Z,29.70
2023-05-18T06:49:17.308Z,29.80
2023-05-18T06:51:53.421Z,29.90
2023-05-18T06:54:34.776Z,29.70
2023-05-18T06:57:22.539Z,29.30
2023-05-18T07:00:01.366Z,29.40
2023-05-18T07:02:43.158Z,29.40
2023-05-18T07:05:27.141Z,29.50
2023-05-18T07:08:02.811Z,29.70
2023-05-18T07:10:59.246Z,29.70
2023-05-18T07:13:47.507Z,29.80
2023-05-18T07:16:35.790Z,29.70
2023-05-18T07:19:17.769Z,29.80
2023-05-18T07:22:01.576Z,30.20
2023-05-18T07:24:39.501Z,30.20
2023-05-18T07:27:20.841Z,30.00
2023-05-18T07:30:00.020Z,29.90
2023-05-18T07:32:35.649Z,29.80
2023-05-18T07:35:24.604Z,29.80
2023-05-18T07:38:04.375Z,29.90
2023-05-18T07:40:42.114Z,29.80
2023-05-18T07:43:25.937Z,29.80
2023-05-18T07:46:02.185Z,30.00
2023-05-18T07:48:41.022Z,30.20
2023-05-18T07:51:17.513Z,30.20
2023-05-18T07:53:56.300Z,30.10
2023-05-18T07:56:39.605Z,29.60
2023-05-18T07:59:18.356Z,29.10
2023-05-18T08:01:53.702Z,28.80
2023-05-18T08:04:34.259Z,28.80
2023-05-18T08:07:10.805Z,28.70
2023-05-18T08:10:02.919Z,28.70
2023-05-18T08:12:40.680Z,28.70
2023-05-18T08:15:29.268Z,29.30
2023-05-18T08:18:03.976Z,29.20
2023-05-18T08:20:38.928Z,29.50
2023-05-18T08:23:13.123Z,29.50
2023-05-18T08:25:54.269Z,29.50
2023-05-18T08:28:29.683Z,29.30
2023-05-18T08:31:06.078Z,29.10
2023-05-18T08:33:43.774Z,28.90
2023-05-18T08:36:22.449Z,29.00
2023-05-18T08:39:03.379Z,29.20
2023-05-18T08:41:48.360Z,29.30
2023-05-18T08:44:26.479Z,29.30
2023-05-18T08:47:01.673Z,29.30
2023-05-18T08:49:38.360Z,29.30
2023-05-18T08:52:24.192Z,29.60
2023-05-18T08:55:06.538Z,29.50
2023-05-18T08:57:57.694Z,29.20
2023-05-18T09:00:43.703Z,29.20
2023-05-18T09:03:18.204Z,29.30
2023-05-18T09:06:00.170Z,29.40
2023-05-18T09:08:38.613Z,29.30
2023-05-18T09:11:18.196Z,29.40
2023-05-18T09:13:56.304Z,29.20
2023-05-18T09:16:37.880Z,29.30
2023-05-18T09:19:26.234Z,29.10
2023-05-18T09:22:05.668Z,29.00
2023-05-18T09:24:41.872Z,29.30
2023-05-18T09:27:18.575Z,29.40
2023-05-18T09:30:10.262Z,29.30
2023-05-18T09:32:52.806Z,29.30
2023-05-18T09:35:39.241Z,29.00
2023-05-18T09:38:15.476Z,28.90
2023-05-18T09:41:00.580Z,28.90
2023-05-18T09:43:38.263Z,29.10
2023-05-18T09:46:15.490Z,29.10
2023-05-18T09:49:03.053Z,29.00
2023-05-18T09:51:45.199Z,28.80
2023-05-18T09:54:24.389Z,28.70
2023-05-18T09:57:10.462Z,28.80
2023-05-18T09:59:55.306Z,28.90
2023-05-18T10:02:36.788Z,28.80
2023-05-18T10:08:16.010Z,28.50
2023-05-18T10:11:05.477Z,28.50
2023-05-18T10:14:12.116Z,28.60
2023-05-18T10:17:00.290Z,28.60
2023-05-18T10:19:48.614Z,28.90
2023-05-18T10:22:33.326Z,28.70
2023-05-18T10:25:15.793Z,28.70
2023-05-18T10:27:56.161Z,28.70
2023-05-18T10:30:37.991Z,28.80
2023-05-18T10:33:29.190Z,28.90
2023-05-18T10:36:16.690Z,28.80
2023-05-18T10:38:56.812Z,28.70
2023-05-18T10:41:34.525Z,28.70
2023-05-18T10:44:12.561Z,28.60
2023-05-18T10:46:49.950Z,28.50
2023-05-18T10:49:30.025Z,28.30
2023-05-18T10:52:16.331Z,28.10
2023-05-18T10:54:57.019Z,28.10
2023-05-18T10:57:40.809Z,28.30
2023-05-18T11:00:17.574Z,28.20
2023-05-18T11:02:59.693Z,28.30
2023-05-18T11:05:38.769Z,28.20
2023-05-18T11:08:17.915Z,28.00
2023-05-18T11:10:54.090Z,27.90
2023-05-18T11:13:37.221Z,28.00
2023-05-18T11:16:13.001Z,28.00
2023-05-18T11:18:55.296Z,27.90
2023-05-18T11:22:01.145Z,27.70
2023-05-18T11:24:51.061Z,27.70
2023-05-18T11:27:30.520Z,27.80
2023-05-18T11:30:15.124Z,27.60
2023-05-18T11:32:57.793Z,27.50
2023-05-18T11:35:38.082Z,27.50
2023-05-18T11:38:19.563Z,27.40
2023-05-18T11:40:57.922Z,27.30
2023-05-18T11:43:38.048Z,27.40
2023-05-18T11:46:28.692Z,27.30
2023-05-18T11:55:34.843Z,27.10
2023-05-18T11:58:21.052Z,26.90
2023-05-18T12:01:06.770Z,26.70
2023-05-18T12:03:52.133Z,26.60
2023-05-18T12:06:29.558Z,26.50
2023-05-18T12:09:09.265Z,26.40
2023-05-18T12:11:46.866Z,26.30
2023-05-18T12:14:37.215Z,26.40
2023-05-18T12:17:26.032Z,26.30
2023-05-18T12:20:08.006Z,26.20
2023-05-18T12:22:46.039Z,26.30
2023-05-18T12:25:24.929Z,26.30
2023-05-18T12:28:01.731Z,26.20
2023-05-18T12:30:56.152Z,26.10
2023-05-18T12:33:42.166Z,26.00
2023-05-18T12:36:25.972Z,26.00
2023-05-18T12:39:03.476Z,26.10
2023-05-18T12:41:38.872Z,26.10
2023-05-18T12:44:25.999Z,26.00
2023-05-18T12:47:05.896Z,26.00
2023-05-18T12:49:47.312Z,26.00
2023-05-18T12:52:30.573Z,25.90
2023-05-18T12:55:12.336Z,25.90
2023-05-18T12:58:08.370Z,25.90
2023-05-18T13:00:50.532Z,25.80
2023-05-18T13:06:18.037Z,25.70
2023-05-18T13:09:00.469Z,25.60
2023-05-18T13:11:38.619Z,25.70
2023-05-18T13:14:37.037Z,25.70
2023-05-18T13:17:12.422Z,25.70
2023-05-18T13:20:03.528Z,25.70
2023-05-18T13:22:50.737Z,25.50
2023-05-18T13:25:52.836Z,25.50
2023-05-18T13:31:57.341Z,25.50
2023-05-18T13:34:35.365Z,25.50
2023-05-18T13:37:18.128Z,25.60
2023-05-18T13:40:01.413Z,25.60
2023-05-18T13:42:41.330Z,25.50
2023-05-18T13:45:31.240Z,25.50
2023-05-18T13:48:16.115Z,25.40
2023-05-18T13:51:01.318Z,25.40
2023-05-18T13:53:46.118Z,25.40
2023-05-18T13:56:30.612Z,25.40
2023-05-18T13:59:13.098Z,25.40
2023-05-18T14:02:10.196Z,25.30
2023-05-18T14:04:50.442Z,25.30
2023-05-18T14:10:28.789Z,25.10
2023-05-18T14:13:12.482Z,25.10
2023-05-18T14:15:55.345Z,25.20
2023-05-18T14:18:42.256Z,25.20
2023-05-18T14:21:19.995Z,25.20
2023-05-18T14:24:02.858Z,25.20
2023-05-18T14:26:57.028Z,25.20
2023-05-18T14:29:47.777Z,25.10
2023-05-18T14:32:29.399Z,25.20
2023-05-18T14:35:05.682Z,25.20
2023-05-18T14:37:49.589Z,25.30
2023-05-18T14:40:43.565Z,25.30
2023-05-18T14:43:26.151Z,25.10
2023-05-18T14:46:23.163Z,25.20
2023-05-18T14:48:58.406Z,25.20
2023-05-18T14:51:45.994Z,25.30
2023-05-18T14:54:27.617Z,25.30
2023-05-18T14:57:26.531Z,25.30
2023-05-18T15:00:12.904Z,25.30
2023-05-18T15:02:51.876Z,25.30
2023-05-18T15:05:43.505Z,25.10
2023-05-18T15:08:25.771Z,25.00
2023-05-18T15:11:25.127Z,25.10
2023-05-18T15:14:06.059Z,25.20
2023-05-18T15:16:51.792Z,25.20
2023-05-18T15:19:46.355Z,25.30
2023-05-18T15:22:49.319Z,25.30
2023-05-18T15:25:33.450Z,25.20
2023-05-18T15:28:16.242Z,25.20
2023-05-18T15:30:52.488Z,25.10
2023-05-18T15:33:39.105Z,25.10
2023-05-18T15:36:21.154Z,25.00
2023-05-18T15:39:02.382Z,25.10
2023-05-18T15:41:42.979Z,25.10
2023-05-18T15:44:30.748Z,25.10
2023-05-18T15:47:10.111Z,25.10
2023-05-18T15:49:49.644Z,25.10
2023-05-18T15:52:28.187Z,25.10
2023-05-18T15:55:04.311Z,25.10
2023-05-18T15:57:51.117Z,24.90
2023-05-18T16:00:31.356Z,24.80
2023-05-18T16:03:11.299Z,25.00
2023-05-18T16:06:01.222Z,24.90
2023-05-18T16:08:37.185Z,24.90
2023-05-18T16:11:15.296Z,24.90
2023-05-18T16:13:57.198Z,24.90
2023-05-18T16:16:40.605Z,25.00
2023-05-18T16:19:17.055Z,25.00
2023-05-18T16:21:57.327Z,24.90
2023-05-18T16:24:33.795Z,24.90
2023-05-18T16:27:11.740Z,24.90
2023-05-18T16:29:48.754Z,24.70
2023-05-18T16:32:27.155Z,24.70
2023-05-18T16:35:02.649Z,24.70
2023-05-18T16:37:45.549Z,24.70
2023-05-18T16:40:22.365Z,24.70
2023-05-18T16:43:02.129Z,24.60
2023-05-18T16:45:41.422Z,24.70
2023-05-18T16:48:16.836Z,24.50
2023-05-18T16:50:51.628Z,24.40
2023-05-18T16:53:29.542Z,24.60
2023-05-18T16:56:10.334Z,24.60
2023-05-18T16:58:44.908Z,24.60
2023-05-18T17:01:30.986Z,24.60
2023-05-18T17:04:07.017Z,24.70
2023-05-18T17:06:42.679Z,24.80
2023-05-18T17:09:26.807Z,24.70
2023-05-18T17:12:07.150Z,24.70
2023-05-18T17:14:43.088Z,24.50
2023-05-18T17:17:29.482Z,24.50
2023-05-18T17:20:09.608Z,24.50
2023-05-18T17:22:45.339Z,24.50
2023-05-18T17:25:22.522Z,24.20
2023-05-18T17:28:01.511Z,24.40
2023-05-18T17:30:40.195Z,24.40
2023-05-18T17:33:17.059Z,24.40
2023-05-18T17:35:56.378Z,24.30
2023-05-18T17:38:32.028Z,24.30
2023-05-18T17:41:14.185Z,24.30
2023-05-18T17:43:49.166Z,24.30
2023-05-18T17:46:25.111Z,24.30
2023-05-18T17:49:00.733Z,24.30
2023-05-18T17:51:36.850Z,24.40
2023-05-18T17:54:13.641Z,24.40
2023-05-18T17:56:51.812Z,24.40
2023-05-18T17:59:26.460Z,24.60
2023-05-18T18:02:03.846Z,24.50
2023-05-18T18:04:37.041Z,24.40
2023-05-18T18:07:12.241Z,24.30
2023-05-18T18:09:50.128Z,24.40
2023-05-18T18:12:30.177Z,24.40
2023-05-18T18:15:08.893Z,24.50
2023-05-18T18:17:41.821Z,24.50
2023-05-18T18:20:16.553Z,24.40
2023-05-18T18:22:51.126Z,24.50
2023-05-18T18:25:25.269Z,24.70
2023-05-18T18:28:01.038Z,24.50
2023-05-18T18:30:35.672Z,24.50
2023-05-18T18:33:23.913Z,24.60
2023-05-18T18:36:03.837Z,24.40
2023-05-18T18:38:38.183Z,24.30
2023-05-18T18:41:14.792Z,24.40
2023-05-18T18:43:49.425Z,24.50
2023-05-18T18:46:23.288Z,24.40
2023-05-18T18:48:57.388Z,24.30
2023-05-18T18:51:31.376Z,24.10
2023-05-18T18:54:05.061Z,24.10
2023-05-18T18:56:38.715Z,24.00
2023-05-18T18:59:19.018Z,24.20
2023-05-18T19:01:51.851Z,24.20
2023-05-18T19:04:24.933Z,24.20
2023-05-18T19:07:05.332Z,24.30
2023-05-18T19:09:42.619Z,24.30
2023-05-18T19:12:16.464Z,24.30
2023-05-18T19:14:50.922Z,24.50
2023-05-18T19:17:25.659Z,24.40
2023-05-18T19:19:59.758Z,24.30
2023-05-18T19:22:32.587Z,24.10
2023-05-18T19:25:05.940Z,24.00
2023-05-18T19:27:42.545Z,23.90
2023-05-18T19:30:22.704Z,23.90
2023-05-18T19:32:58.355Z,24.00
2023-05-18T19:35:32.598Z,24.00
2023-05-18T19:38:05.996Z,23.90
2023-05-18T19:40:40.195Z,23.90
2023-05-18T19:43:15.740Z,24.00
2023-05-18T19:45:52.825Z,23.90
2023-05-18T19:48:28.703Z,23.70
2023-05-18T19:51:06.841Z,23.60
2023-05-18T19:53:44.897Z,23.70
2023-05-18T19:56:19.292Z,23.80
2023-05-18T19:58:54.242Z,23.70
2023-05-18T20:01:30.378Z,23.70
2023-05-18T20:04:13.040Z,23.80
2023-05-18T20:06:48.672Z,23.90
2023-05-18T20:09:23.231Z,23.80
2023-05-18T20:11:57.805Z,23.70
2023-05-18T20:14:34.727Z,23.70
2023-05-18T20:17:12.691Z,23.70
2023-05-18T20:19:53.490Z,23.80
2023-05-18T20:22:28.399Z,23.50
2023-05-18T20:25:07.930Z,23.50
2023-05-18T20:27:43.988Z,23.20
2023-05-18T20:30:17.906Z,23.30
2023-05-18T20:33:00.146Z,23.30
2023-05-18T20:35:33.991Z,23.10
2023-05-18T20:38:12.671Z,23.20
2023-05-18T20:40:46.611Z,23.40
2023-05-18T20:43:23.083Z,23.40
2023-05-18T20:45:59.455Z,23.50
2023-05-18T20:48:35.141Z,23.50
2023-05-18T20:51:09.969Z,23.50
2023-05-18T20:53:46.496Z,23.50
2023-05-18T20:56:24.110Z,23.50
2023-05-18T20:59:00.392Z,23.60
2023-05-18T21:01:40.374Z,23.60
2023-05-18T21:04:19.475Z,23.60
2023-05-18T21:06:56.204Z,23.60
2023-05-18T21:09:30.142Z,23.70
2023-05-18T21:12:05.208Z,23.70
2023-05-18T21:14:38.713Z,23.50
2023-05-18T21:17:13.199Z,23.40
2023-05-18T21:19:50.285Z,23.30
2023-05-18T21:22:25.803Z,23.30
2023-05-18T21:25:00.302Z,23.40
2023-05-18T21:27:35.319Z,23.40
2023-05-18T21:30:09.095Z,23.20
2023-05-18T21:32:45.940Z,23.30
2023-05-18T21:35:24.929Z,23.40
2023-05-18T21:37:58.988Z,23.20
2023-05-18T21:40:33.575Z,23.10
2023-05-18T21:43:09.816Z,23.20
2023-05-18T21:45:43.406Z,23.20
2023-05-18T21:48:19.947Z,23.50
2023-05-18T21:50:55.284Z,23.30
2023-05-18T21:53:39.578Z,23.30
2023-05-18T21:56:15.826Z,23.20
2023-05-18T21:58:51.980Z,23.30
2023-05-18T22:01:26.553Z,23.40
2023-05-18T22:04:02.998Z,23.40
2023-05-18T22:06:43.367Z,23.40
2023-05-18T22:09:18.115Z,23.50
2023-05-18T22:11:50.853Z,23.60
2023-05-18T22:14:23.773Z,23.50
2023-05-18T22:16:58.572Z,23.60
2023-05-18T22:19:32.923Z,23.60
2023-05-18T22:22:11.622Z,23.70
2023-05-18T22:24:50.232Z,23.40
2023-05-18T22:27:24.396Z,23.40
2023-05-18T22:30:00.358Z,23.40
2023-05-18T22:32:34.470Z,23.40
2023-05-18T22:35:08.994Z,23.60
2023-05-18T22:37:48.975Z,23.60
2023-05-18T22:40:25.958Z,23.80
2023-05-18T22:43:00.899Z,23.70
2023-05-18T22:45:35.473Z,23.70
2023-05-18T22:48:08.824Z,23.90
2023-05-18T22:50:44.915Z,23.80
2023-05-18T22:53:21.445Z,24.00
2023-05-18T22:55:55.227Z,23.80
2023-05-18T22:58:29.841Z,23.80
2023-05-18T23:01:05.951Z,23.90
2023-05-18T23:03:39.446Z,23.90
2023-05-18T23:06:12.662Z,24.00
2023-05-18T23:08:48.224Z,24.30
2023-05-18T23:11:23.319Z,24.30
2023-05-18T23:13:59.382Z,24.40
2023-05-18T23:16:33.048Z,24.30
2023-05-18T23:19:13.161Z,24.40
2023-05-18T23:21:47.512Z,24.50
2023-05-18T23:24:26.303Z,24.80
2023-05-18T23:27:00.652Z,25.70
2023-05-18T23:29:37.357Z,27.50
2023-05-18T23:32:13.259Z,29.40
2023-05-18T23:34:50.018Z,30.50
2023-05-18T23:37:27.995Z,31.80
2023-05-18T23:40:06.122Z,32.60
2023-05-18T23:42:40.798Z,33.70
2023-05-18T23:45:15.139Z,34.10
2023-05-18T23:47:49.736Z,33.90
2023-05-18T23:50:26.534Z,32.90
2023-05-18T23:53:09.250Z,35.10
2023-05-18T23:55:46.327Z,35.00
2023-05-18T23:58:21.026Z,33.00
